createdAt,value
2022-09-03T00:01:06.890Z,22.42
2022-09-03T00:04:11.817Z,22.13
2022-09-03T00:06:48.837Z,22.58
2022-09-03T00:09:31.290Z,21.42
2022-09-03T00:12:13.926Z,21.48
2022-09-03T00:14:53.091Z,23.00
2022-09-03T00:17:24.342Z,23.50
2022-09-03T00:19:58.850Z,22.08
2022-09-03T00:22:32.023Z,21.17
2022-09-03T00:25:03.076Z,22.58
2022-09-03T00:27:36.478Z,21.85
2022-09-03T00:30:05.623Z,21.67
2022-09-03T00:32:47.364Z,22.70
2022-09-03T00:35:35.825Z,23.73
2022-09-03T00:38:02.407Z,21.58
2022-09-03T00:40:28.831Z,24.00
2022-09-03T00:43:08.018Z,24.50
2022-09-03T00:45:57.540Z,23.02
2022-09-03T00:48:30.414Z,26.08
2022-09-03T00:51:11.883Z,24.90
2022-09-03T00:53:52.133Z,26.30
2022-09-03T00:56:24.654Z,25.90
2022-09-03T00:59:11.696Z,30.33
2022-09-03T01:04:35.747Z,23.15
2022-09-03T01:07:40.156Z,23.10
2022-09-03T01:10:28.610Z,26.90
2022-09-03T01:13:04.586Z,25.13
2022-09-03T01:15:40.387Z,27.75
2022-09-03T01:18:23.764Z,22.77
2022-09-03T01:21:40.588Z,25.85
2022-09-03T01:24:23.685Z,22.95
2022-09-03T01:27:11.138Z,25.45
2022-09-03T01:29:57.337Z,23.85
2022-09-03T01:32:53.226Z,23.50
2022-09-03T01:35:38.727Z,23.05
2022-09-03T01:38:26.309Z,22.73
2022-09-03T01:41:29.755Z,25.52
2022-09-03T01:44:27.759Z,22.77
2022-09-03T01:47:26.691Z,22.02
2022-09-03T01:50:17.597Z,21.48
2022-09-03T01:52:52.244Z,26.38
2022-09-03T01:55:32.172Z,26.52
2022-09-03T01:58:19.141Z,28.48
2022-09-03T02:03:17.436Z,23.17
2022-09-03T02:05:45.872Z,24.55
2022-09-03T02:08:12.382Z,29.27
2022-09-03T02:10:50.922Z,24.67
2022-09-03T02:13:23.291Z,26.70
2022-09-03T02:15:52.884Z,25.85
2022-09-03T02:18:31.558Z,26.25
2022-09-03T02:21:00.500Z,25.70
2022-09-03T02:23:29.412Z,25.38
2022-09-03T02:25:58.588Z,25.77
2022-09-03T02:28:26.487Z,27.08
2022-09-03T02:30:53.247Z,26.17
2022-09-03T02:33:19.956Z,27.48
2022-09-03T02:35:47.779Z,23.58
2022-09-03T02:38:20.469Z,24.10
2022-09-03T02:40:47.044Z,24.38
2022-09-03T02:43:20.216Z,22.73
2022-09-03T02:45:53.887Z,24.50
2022-09-03T02:48:24.472Z,25.13
2022-09-03T02:50:51.643Z,25.75
2022-09-03T02:53:18.145Z,28.90
2022-09-03T02:55:44.994Z,28.25
2022-09-03T02:58:11.774Z,27.40
2022-09-03T03:00:38.794Z,30.58
2022-09-03T03:03:06.526Z,30.27
2022-09-03T03:05:47.260Z,27.35
2022-09-03T03:08:21.506Z,28.45
2022-09-03T03:10:49.502Z,26.40
2022-09-03T03:13:16.484Z,25.92
2022-09-03T03:15:43.266Z,26.45
2022-09-03T03:18:14.092Z,27.38
2022-09-03T03:20:41.780Z,28.77
2022-09-03T03:23:08.805Z,29.80
2022-09-03T03:25:37.510Z,28.15
2022-09-03T03:28:05.212Z,27.48
2022-09-03T03:30:32.514Z,28.48
2022-09-03T03:32:59.477Z,30.30
2022-09-03T03:35:26.022Z,30.20
2022-09-03T03:37:52.599Z,27.95
2022-09-03T03:40:20.269Z,26.20
2022-09-03T03:42:46.786Z,28.45
2022-09-03T03:45:13.379Z,28.35
2022-09-03T03:47:39.857Z,30.30
2022-09-03T03:50:06.874Z,30.05
2022-09-03T03:52:33.384Z,31.15
2022-09-03T03:54:59.910Z,29.63
2022-09-03T03:57:30.493Z,30.08
2022-09-03T03:59:57.030Z,27.98
2022-09-03T04:02:23.769Z,29.10
2022-09-03T04:04:50.416Z,30.77
2022-09-03T04:07:17.256Z,27.55
2022-09-03T04:09:43.757Z,31.77
2022-09-03T04:12:10.255Z,31.83
2022-09-03T04:14:36.800Z,33.53
2022-09-03T04:17:03.600Z,31.80
2022-09-03T04:19:30.444Z,31.42
2022-09-03T04:21:57.223Z,29.10
2022-09-03T04:24:23.986Z,29.90
2022-09-03T04:26:50.853Z,31.10
2022-09-03T04:29:18.333Z,29.60
2022-09-03T04:32:04.911Z,31.23
2022-09-03T04:34:31.505Z,32.22
2022-09-03T04:37:00.621Z,33.72
2022-09-03T04:39:27.258Z,32.50
2022-09-03T04:41:53.837Z,30.90
2022-09-03T04:44:20.913Z,32.13
2022-09-03T04:46:48.224Z,30.48
2022-09-03T04:49:15.122Z,29.55
2022-09-03T04:51:42.250Z,31.95
2022-09-03T04:54:10.259Z,31.13
2022-09-03T04:56:39.047Z,26.75
2022-09-03T04:59:08.680Z,27.65
2022-09-03T05:01:37.435Z,27.80
2022-09-03T05:04:05.031Z,28.45
2022-09-03T05:06:32.280Z,28.60
2022-09-03T05:08:59.665Z,30.20
2022-09-03T05:11:28.358Z,30.25
2022-09-03T05:13:57.453Z,35.08
2022-09-03T05:16:25.372Z,34.75
2022-09-03T05:18:54.132Z,38.42
2022-09-03T05:21:21.585Z,35.35
2022-09-03T05:23:50.694Z,33.67
2022-09-03T05:26:25.329Z,29.30
2022-09-03T05:28:56.373Z,30.25
2022-09-03T05:31:26.370Z,32.80
2022-09-03T05:33:55.550Z,28.58
2022-09-03T05:36:24.103Z,29.65
2022-09-03T05:38:51.366Z,29.48
2022-09-03T05:41:18.950Z,29.70
2022-09-03T05:43:51.905Z,32.72
2022-09-03T05:46:18.485Z,29.48
2022-09-03T05:48:45.568Z,30.00
2022-09-03T05:51:17.404Z,28.67
2022-09-03T05:53:46.713Z,27.17
2022-09-03T05:56:17.781Z,26.15
2022-09-03T05:58:50.404Z,29.98
2022-09-03T06:01:28.955Z,31.55
2022-09-03T06:03:58.969Z,31.08
2022-09-03T06:06:27.177Z,28.58
2022-09-03T06:08:55.682Z,29.42
2022-09-03T06:11:26.618Z,32.63
2022-09-03T06:13:53.498Z,32.15
2022-09-03T06:16:22.502Z,30.77
2022-09-03T06:19:01.858Z,37.28
2022-09-03T06:21:29.369Z,38.53
2022-09-03T06:23:59.743Z,45.83
2022-09-03T06:26:28.750Z,49.75
2022-09-03T06:28:57.104Z,51.22
2022-09-03T06:31:24.522Z,49.58
2022-09-03T06:33:53.032Z,49.50
2022-09-03T06:36:20.580Z,44.67
2022-09-03T06:38:47.785Z,42.90
2022-09-03T06:41:23.811Z,42.30
2022-09-03T06:43:52.233Z,43.75
2022-09-03T06:46:21.695Z,42.78
2022-09-03T06:48:51.740Z,41.42
2022-09-03T06:51:20.775Z,38.08
2022-09-03T06:53:52.727Z,38.85
2022-09-03T06:56:27.110Z,40.08
2022-09-03T06:58:58.553Z,40.58
2022-09-03T07:01:28.276Z,40.65
2022-09-03T07:03:57.213Z,39.90
2022-09-03T07:06:29.441Z,41.50
2022-09-03T07:08:58.037Z,41.50
2022-09-03T07:11:26.962Z,40.00
2022-09-03T07:13:55.794Z,40.88
2022-09-03T07:16:25.208Z,39.22
2022-09-03T07:18:52.566Z,39.55
2022-09-03T07:21:38.089Z,39.60
2022-09-03T07:24:25.067Z,41.03
2022-09-03T07:30:03.409Z,43.80
2022-09-03T07:32:51.751Z,46.08
2022-09-03T07:35:38.958Z,46.03
2022-09-03T07:38:05.667Z,46.03
2022-09-03T07:40:33.049Z,48.45
2022-09-03T07:43:03.423Z,47.17
2022-09-03T07:45:31.310Z,45.10
2022-09-03T07:47:57.959Z,45.60
2022-09-03T07:50:24.984Z,45.30
2022-09-03T07:53:00.954Z,42.55
2022-09-03T07:55:28.171Z,41.13
2022-09-03T07:57:59.446Z,40.60
2022-09-03T08:00:26.287Z,39.22
2022-09-03T08:02:56.600Z,37.25
2022-09-03T08:05:23.076Z,35.28
2022-09-03T08:07:49.633Z,34.63
2022-09-03T08:10:16.567Z,34.65
2022-09-03T08:12:43.108Z,33.30
2022-09-03T08:15:09.800Z,29.05
2022-09-03T08:17:36.319Z,28.60
2022-09-03T08:20:04.446Z,28.40
2022-09-03T08:22:30.957Z,25.88
2022-09-03T08:24:57.501Z,24.83
2022-09-03T08:27:25.409Z,24.55
2022-09-03T08:29:51.942Z,25.20
2022-09-03T08:32:20.972Z,23.33
2022-09-03T08:34:47.456Z,23.40
2022-09-03T08:37:13.953Z,21.02
2022-09-03T08:39:40.541Z,20.90
2022-09-03T08:42:33.117Z,21.55
2022-09-03T08:45:02.820Z,20.75
2022-09-03T08:47:37.473Z,20.20
2022-09-03T08:50:24.808Z,20.92
2022-09-03T08:52:57.709Z,21.92
2022-09-03T08:55:27.204Z,21.83
2022-09-03T08:58:14.300Z,19.98
2022-09-03T09:00:47.778Z,20.63
2022-09-03T09:03:34.787Z,19.00
2022-09-03T09:06:30.237Z,20.65
2022-09-03T09:09:18.654Z,20.02
2022-09-03T09:11:55.694Z,17.00
2022-09-03T09:14:39.370Z,18.52
2022-09-03T09:17:31.288Z,17.48
2022-09-03T09:20:15.806Z,16.27
2022-09-03T09:22:47.163Z,19.35
2022-09-03T09:25:19.014Z,18.15
2022-09-03T09:28:00.586Z,16.23
2022-09-03T09:30:29.323Z,16.45
2022-09-03T09:32:56.209Z,16.45
2022-09-03T09:35:23.897Z,17.40
2022-09-03T09:38:09.681Z,16.52
2022-09-03T09:40:44.657Z,15.98
2022-09-03T09:43:16.826Z,11.30
2022-09-03T09:45:46.824Z,9.75
2022-09-03T09:48:34.537Z,9.35
2022-09-03T09:51:25.752Z,9.43
2022-09-03T09:54:14.593Z,7.43
2022-09-03T09:56:44.590Z,6.32
2022-09-03T09:59:13.461Z,8.88
2022-09-03T10:01:42.568Z,7.60
2022-09-03T10:04:33.275Z,7.82
2022-09-03T10:07:32.218Z,6.88
2022-09-03T10:10:18.384Z,5.78
2022-09-03T10:12:51.495Z,4.97
2022-09-03T10:15:17.987Z,5.35
2022-09-03T10:17:47.573Z,5.72
2022-09-03T10:20:27.965Z,5.00
2022-09-03T10:23:05.076Z,5.15
2022-09-03T10:25:52.084Z,5.50
2022-09-03T10:28:18.627Z,6.00
2022-09-03T10:31:09.930Z,5.78
2022-09-03T10:33:49.275Z,5.80
2022-09-03T10:36:21.918Z,5.03
2022-09-03T10:39:00.099Z,6.30
2022-09-03T10:41:55.876Z,5.70
2022-09-03T10:44:35.132Z,5.25
2022-09-03T10:47:18.550Z,4.75
2022-09-03T10:49:54.333Z,5.07
2022-09-03T10:52:27.021Z,4.68
2022-09-03T10:55:15.338Z,4.30
2022-09-03T10:58:00.028Z,4.20
2022-09-03T11:00:30.762Z,4.70
2022-09-03T11:03:15.685Z,4.00
2022-09-03T11:06:06.666Z,4.57
2022-09-03T11:08:55.866Z,4.82
2022-09-03T11:11:36.517Z,4.70
2022-09-03T11:14:11.044Z,4.43
2022-09-03T11:16:46.470Z,4.43
2022-09-03T11:19:19.068Z,5.68
2022-09-03T11:21:48.529Z,4.85
2022-09-03T11:24:26.793Z,5.32
2022-09-03T11:27:08.038Z,5.20
2022-09-03T11:29:40.007Z,5.85
2022-09-03T11:32:17.127Z,4.72
2022-09-03T11:34:51.828Z,4.80
2022-09-03T11:37:21.211Z,5.18
2022-09-03T11:40:08.002Z,5.07
2022-09-03T11:42:41.216Z,5.60
2022-09-03T11:45:26.432Z,5.28
2022-09-03T11:47:54.431Z,5.30
2022-09-03T11:50:30.993Z,4.63
2022-09-03T11:53:15.369Z,4.32
2022-09-03T11:55:54.849Z,5.32
2022-09-03T11:58:24.604Z,4.82
2022-09-03T12:00:54.035Z,4.22
2022-09-03T12:03:27.880Z,3.50
2022-09-03T12:06:21.756Z,4.53
2022-09-03T12:09:14.718Z,5.03
2022-09-03T12:11:59.372Z,6.20
2022-09-03T12:14:39.069Z,7.22
2022-09-03T12:17:32.413Z,8.25
2022-09-03T12:19:59.430Z,8.20
2022-09-03T12:22:29.665Z,9.13
2022-09-03T12:25:07.618Z,9.65
2022-09-03T12:27:40.213Z,9.00
2022-09-03T12:30:16.425Z,8.73
2022-09-03T12:32:43.646Z,8.70
2022-09-03T12:38:18.280Z,10.45
2022-09-03T12:43:49.700Z,12.63
2022-09-03T12:46:17.607Z,12.48
2022-09-03T12:51:52.400Z,12.43
2022-09-03T12:54:22.211Z,13.35
2022-09-03T12:57:00.109Z,12.70
2022-09-03T12:59:31.458Z,13.10
2022-09-03T13:02:03.710Z,14.75
2022-09-03T13:04:34.499Z,15.45
2022-09-03T13:07:11.535Z,14.50
2022-09-03T13:09:41.042Z,12.93
2022-09-03T13:12:07.930Z,13.38
2022-09-03T13:14:47.204Z,11.45
2022-09-03T13:17:19.819Z,11.32
2022-09-03T13:20:00.387Z,9.82
2022-09-03T13:22:57.964Z,9.10
2022-09-03T13:25:36.911Z,8.15
2022-09-03T13:28:43.181Z,7.82
2022-09-03T13:31:28.694Z,7.88
2022-09-03T13:34:03.031Z,7.07
2022-09-03T13:36:37.020Z,7.32
2022-09-03T13:39:29.717Z,7.72
2022-09-03T13:42:06.319Z,6.88
2022-09-03T13:44:52.934Z,6.55
2022-09-03T13:50:22.753Z,4.30
2022-09-03T13:53:04.933Z,3.75
2022-09-03T13:55:31.377Z,3.97
2022-09-03T13:58:10.874Z,3.63
2022-09-03T14:00:46.577Z,3.70
2022-09-03T14:03:32.642Z,3.50
2022-09-03T14:06:14.368Z,4.10
2022-09-03T14:09:02.354Z,3.63
2022-09-03T14:11:52.670Z,3.92
2022-09-03T14:14:40.837Z,3.67
2022-09-03T14:17:39.760Z,3.63
2022-09-03T14:20:13.212Z,3.80
2022-09-03T14:22:51.891Z,4.10
2022-09-03T14:25:21.652Z,3.90
2022-09-03T14:27:50.216Z,3.95
2022-09-03T14:30:16.669Z,5.25
2022-09-03T14:32:49.166Z,4.40
2022-09-03T14:35:51.228Z,5.15
2022-09-03T14:38:34.009Z,4.32
2022-09-03T14:41:33.468Z,4.88
2022-09-03T14:44:38.003Z,4.82
2022-09-03T14:47:38.117Z,4.72
2022-09-03T14:50:13.701Z,5.00
2022-09-03T14:53:09.251Z,4.40
2022-09-03T14:55:47.914Z,4.43
2022-09-03T14:58:35.191Z,4.38
2022-09-03T15:01:06.283Z,4.78
2022-09-03T15:03:53.346Z,4.85
2022-09-03T15:06:32.360Z,4.95
2022-09-03T15:09:22.637Z,5.22
2022-09-03T15:11:55.367Z,5.25
2022-09-03T15:14:35.010Z,4.63
2022-09-03T15:17:43.848Z,4.68
2022-09-03T15:20:25.630Z,5.32
2022-09-03T15:23:43.452Z,4.65
2022-09-03T15:26:47.366Z,5.20
2022-09-03T15:29:40.401Z,5.20
2022-09-03T15:32:43.325Z,5.85
2022-09-03T15:35:47.208Z,5.90
2022-09-03T15:38:43.577Z,5.63
2022-09-03T15:41:48.852Z,4.57
2022-09-03T15:44:19.850Z,5.30
2022-09-03T15:46:52.838Z,5.43
2022-09-03T15:49:44.272Z,4.95
2022-09-03T15:52:27.609Z,5.07
2022-09-03T15:55:26.669Z,4.75
2022-09-03T15:58:08.161Z,4.70
2022-09-03T16:01:00.109Z,4.55
2022-09-03T16:03:59.580Z,4.93
2022-09-03T16:06:48.082Z,5.28
2022-09-03T16:09:50.285Z,4.05
2022-09-03T16:13:06.741Z,4.45
2022-09-03T16:15:41.604Z,4.35
2022-09-03T16:18:12.408Z,4.35
2022-09-03T16:20:45.997Z,4.38
2022-09-03T16:23:15.211Z,4.40
2022-09-03T16:25:51.690Z,4.55
2022-09-03T16:28:28.889Z,4.53
2022-09-03T16:31:30.141Z,4.65
2022-09-03T16:34:21.880Z,4.80
2022-09-03T16:37:12.811Z,4.70
2022-09-03T16:39:55.308Z,5.25
2022-09-03T16:43:05.121Z,5.25
2022-09-03T16:48:58.051Z,4.43
2022-09-03T16:51:52.264Z,4.82
2022-09-03T16:54:44.598Z,5.03
2022-09-03T16:57:25.505Z,5.18
2022-09-03T17:00:15.458Z,5.32
2022-09-03T17:03:04.174Z,5.03
2022-09-03T17:05:59.386Z,5.53
2022-09-03T17:08:25.885Z,5.85
2022-09-03T17:10:56.042Z,5.72
2022-09-03T17:13:37.014Z,5.90
2022-09-03T17:16:09.707Z,5.55
2022-09-03T17:18:57.551Z,5.78
2022-09-03T17:21:46.027Z,5.57
2022-09-03T17:24:33.565Z,6.07
2022-09-03T17:27:15.139Z,5.50
2022-09-03T17:29:43.425Z,5.53
2022-09-03T17:32:22.654Z,5.63
2022-09-03T17:35:13.342Z,5.50
2022-09-03T17:38:05.705Z,5.88
2022-09-03T17:40:55.884Z,6.03
2022-09-03T17:43:47.337Z,6.40
2022-09-03T17:46:36.882Z,7.13
2022-09-03T17:49:08.224Z,6.78
2022-09-03T17:52:19.345Z,7.50
2022-09-03T17:54:51.824Z,7.00
2022-09-03T17:57:31.525Z,7.57
2022-09-03T18:00:04.114Z,6.95
2022-09-03T18:03:24.784Z,7.30
2022-09-03T18:06:01.488Z,7.03
2022-09-03T18:08:43.657Z,6.80
2022-09-03T18:11:33.972Z,7.40
2022-09-03T18:14:19.626Z,7.00
2022-09-03T18:17:07.859Z,7.53
2022-09-03T18:20:14.448Z,6.57
2022-09-03T18:23:05.557Z,6.90
2022-09-03T18:25:54.808Z,7.28
2022-09-03T18:29:06.656Z,6.82
2022-09-03T18:31:51.602Z,6.63
2022-09-03T18:34:48.701Z,6.85
2022-09-03T18:37:40.079Z,6.55
2022-09-03T18:40:28.046Z,6.65
2022-09-03T18:43:32.662Z,6.45
2022-09-03T18:49:57.121Z,6.25
2022-09-03T18:52:47.994Z,6.20
2022-09-03T18:56:04.150Z,6.10
2022-09-03T18:59:15.536Z,6.10
2022-09-03T19:02:01.733Z,6.30
2022-09-03T19:05:11.634Z,5.75
2022-09-03T19:08:12.783Z,5.97
2022-09-03T19:11:29.114Z,6.88
2022-09-03T19:14:18.638Z,6.05
2022-09-03T19:17:20.311Z,6.30
2022-09-03T19:20:46.365Z,5.57
2022-09-03T19:23:31.617Z,6.53
2022-09-03T19:26:47.218Z,6.68
2022-09-03T19:29:47.307Z,7.07
2022-09-03T19:32:43.235Z,5.82
2022-09-03T19:35:38.262Z,6.78
2022-09-03T19:38:50.781Z,7.43
2022-09-03T19:41:50.466Z,6.82
2022-09-03T19:45:01.034Z,6.85
2022-09-03T19:47:54.027Z,6.63
2022-09-03T19:50:42.834Z,7.00
2022-09-03T19:53:32.177Z,7.60
2022-09-03T19:56:21.099Z,7.95
2022-09-03T19:59:18.893Z,7.10
2022-09-03T20:02:05.854Z,7.85
2022-09-03T20:07:39.518Z,6.60
2022-09-03T20:10:23.620Z,7.00
2022-09-03T20:13:17.140Z,7.13
2022-09-03T20:15:58.871Z,6.75
2022-09-03T20:18:35.111Z,6.22
2022-09-03T20:21:04.492Z,6.60
2022-09-03T20:23:41.873Z,5.65
2022-09-03T20:26:20.073Z,5.75
2022-09-03T20:29:10.723Z,6.32
2022-09-03T20:31:53.619Z,5.90
2022-09-03T20:34:34.619Z,6.03
2022-09-03T20:37:18.967Z,6.43
2022-09-03T20:40:04.938Z,5.90
2022-09-03T20:42:37.540Z,6.40
2022-09-03T20:45:10.163Z,6.53
2022-09-03T20:47:42.521Z,6.70
2022-09-03T20:50:18.631Z,6.10
2022-09-03T20:53:01.997Z,6.30
2022-09-03T20:55:33.711Z,6.55
2022-09-03T20:58:14.809Z,7.10
2022-09-03T21:00:57.910Z,6.82
2022-09-03T21:03:30.743Z,6.70
2022-09-03T21:06:15.947Z,6.57
2022-09-03T21:09:05.113Z,7.55
2022-09-03T21:12:06.904Z,6.53
2022-09-03T21:14:41.849Z,6.78
2022-09-03T21:17:27.900Z,7.28
2022-09-03T21:20:10.901Z,6.73
2022-09-03T21:22:52.737Z,7.07
2022-09-03T21:25:32.924Z,7.07
2022-09-03T21:28:06.501Z,7.55
2022-09-03T21:30:40.627Z,7.80
2022-09-03T21:33:19.797Z,7.82
2022-09-03T21:36:16.584Z,7.40
2022-09-03T21:38:49.095Z,7.90
2022-09-03T21:41:23.654Z,7.32
2022-09-03T21:44:19.069Z,7.78
2022-09-03T21:46:54.509Z,7.05
2022-09-03T21:49:53.451Z,7.70
2022-09-03T21:52:27.504Z,7.78
2022-09-03T21:54:54.050Z,7.93
2022-09-03T21:57:31.207Z,7.93
2022-09-03T22:00:17.761Z,7.95
2022-09-03T22:02:46.556Z,7.30
2022-09-03T22:05:15.051Z,7.55
2022-09-03T22:07:59.992Z,7.55
2022-09-03T22:10:39.422Z,7.70
2022-09-03T22:13:23.436Z,7.70
2022-09-03T22:15:51.346Z,7.75
2022-09-03T22:18:29.341Z,8.25
2022-09-03T22:21:13.804Z,8.48
2022-09-03T22:23:55.701Z,7.57
2022-09-03T22:26:32.254Z,8.05
2022-09-03T22:29:02.871Z,7.13
2022-09-03T22:31:47.764Z,7.45
2022-09-03T22:34:33.170Z,7.22
2022-09-03T22:37:06.845Z,8.48
2022-09-03T22:39:36.655Z,7.15
2022-09-03T22:42:44.932Z,7.93
2022-09-03T22:45:51.223Z,7.68
2022-09-03T22:48:23.836Z,7.90
2022-09-03T22:50:58.957Z,8.32
2022-09-03T22:53:55.116Z,8.00
2022-09-03T22:56:22.427Z,8.93
2022-09-03T22:59:15.587Z,8.75
2022-09-03T23:01:52.627Z,8.75
2022-09-03T23:04:29.962Z,9.13
2022-09-03T23:07:11.606Z,9.07
2022-09-03T23:09:41.826Z,9.18
2022-09-03T23:12:15.379Z,9.80
2022-09-03T23:15:06.456Z,9.13
2022-09-03T23:17:40.572Z,9.98
2022-09-03T23:20:24.130Z,9.45
2022-09-03T23:22:59.679Z,9.93
2022-09-03T23:25:37.593Z,10.83
2022-09-03T23:28:15.118Z,10.52
2022-09-03T23:30:41.776Z,10.77
2022-09-03T23:33:11.110Z,10.70
2022-09-03T23:35:56.590Z,10.60
2022-09-03T23:38:46.795Z,11.93
2022-09-03T23:41:25.725Z,11.40
2022-09-03T23:44:13.341Z,11.93
2022-09-03T23:47:18.853Z,11.80
2022-09-03T23:50:18.106Z,12.35
2022-09-03T23:53:00.369Z,12.27
2022-09-03T23:55:43.394Z,13.18
2022-09-03T23:58:32.738Z,13.18
